createdAt,value
2019-03-10T00:00:51.463Z,79.30
2019-03-10T00:03:20.859Z,79.30
2019-03-10T00:05:50.173Z,79.20
2019-03-10T00:08:19.643Z,79.20
2019-03-10T00:10:48.998Z,79.10
2019-03-10T00:13:18.395Z,79.10
2019-03-10T00:15:47.783Z,79.00
2019-03-10T00:18:17.418Z,78.90
2019-03-10T00:20:47.055Z,78.90
2019-03-10T00:23:16.498Z,78.90
2019-03-10T00:25:45.911Z,78.90
2019-03-10T00:28:15.443Z,78.90
2019-03-10T00:30:44.876Z,78.90
2019-03-10T00:33:14.257Z,78.80
2019-03-10T00:35:43.934Z,78.80
2019-03-10T00:38:13.495Z,78.80
2019-03-10T00:41:22.353Z,78.80
2019-03-10T00:44:40.759Z,78.80
2019-03-10T00:47:45.651Z,78.70
2019-03-10T00:50:53.227Z,78.60
2019-03-10T00:53:22.801Z,78.60
2019-03-10T00:55:52.193Z,78.60
2019-03-10T00:58:22.107Z,78.60
2019-03-10T01:00:51.482Z,78.60
2019-03-10T01:03:20.855Z,78.60
2019-03-10T01:05:50.252Z,78.70
2019-03-10T01:08:19.743Z,78.60
2019-03-10T01:10:49.369Z,78.60
2019-03-10T01:13:18.855Z,78.60
2019-03-10T01:15:48.678Z,78.70
2019-03-10T01:18:19.570Z,78.80
2019-03-10T01:20:49.546Z,78.80
2019-03-10T01:23:18.963Z,78.90
2019-03-10T01:25:48.308Z,78.90
2019-03-10T01:28:17.748Z,78.90
2019-03-10T01:30:55.768Z,78.90
2019-03-10T01:33:47.993Z,79.00
2019-03-10T01:36:15.925Z,79.10
2019-03-10T01:38:45.396Z,79.20
2019-03-10T01:41:14.723Z,79.20
2019-03-10T01:43:44.098Z,79.30
2019-03-10T01:46:13.463Z,79.30
2019-03-10T01:48:42.860Z,79.50
2019-03-10T01:51:12.295Z,79.70
2019-03-10T01:53:41.687Z,79.90
2019-03-10T01:56:11.125Z,80.10
2019-03-10T01:58:40.535Z,80.20
2019-03-10T02:01:09.928Z,80.20
2019-03-10T02:03:39.337Z,80.50
2019-03-10T02:06:08.708Z,80.50
2019-03-10T02:08:38.087Z,80.40
2019-03-10T02:11:07.492Z,80.50
2019-03-10T02:13:36.874Z,80.50
2019-03-10T02:16:06.285Z,80.60
2019-03-10T02:18:35.681Z,80.60
2019-03-10T02:21:05.084Z,80.60
2019-03-10T02:23:34.495Z,80.60
2019-03-10T02:26:03.870Z,80.60
2019-03-10T02:28:33.327Z,80.70
2019-03-10T02:31:02.765Z,80.70
2019-03-10T02:33:32.236Z,80.90
2019-03-10T02:36:01.672Z,81.00
2019-03-10T02:38:31.054Z,81.80
2019-03-10T02:41:00.445Z,81.10
2019-03-10T02:43:29.843Z,81.10
2019-03-10T02:45:59.273Z,81.20
2019-03-10T02:48:28.708Z,81.40
2019-03-10T02:50:58.092Z,81.30
2019-03-10T02:53:27.468Z,81.30
2019-03-10T02:55:56.917Z,81.30
2019-03-10T02:58:26.313Z,81.30
2019-03-10T03:00:55.716Z,81.30
2019-03-10T03:03:25.127Z,81.20
2019-03-10T03:05:54.581Z,81.20
2019-03-10T03:08:23.960Z,81.00
2019-03-10T03:10:53.356Z,80.70
2019-03-10T03:13:22.760Z,80.40
2019-03-10T03:15:52.132Z,80.20
2019-03-10T03:18:21.567Z,79.60
2019-03-10T03:20:50.938Z,79.30
2019-03-10T03:23:20.368Z,78.90
2019-03-10T03:25:49.739Z,78.50
2019-03-10T03:28:19.162Z,78.10
2019-03-10T03:30:48.552Z,78.10
2019-03-10T03:33:17.945Z,77.90
2019-03-10T03:36:06.770Z,77.60
2019-03-10T03:38:48.784Z,75.80
2019-03-10T03:41:19.221Z,74.30
2019-03-10T03:43:48.608Z,72.30
2019-03-10T03:46:18.127Z,71.60
2019-03-10T03:48:47.503Z,71.90
2019-03-10T03:51:16.875Z,72.40
2019-03-10T03:53:46.343Z,72.80
2019-03-10T03:56:15.719Z,73.80
2019-03-10T03:58:45.132Z,75.20
2019-03-10T04:01:21.123Z,76.40
2019-03-10T04:03:50.560Z,77.10
2019-03-10T04:06:19.938Z,77.90
2019-03-10T04:08:49.332Z,78.40
2019-03-10T04:11:18.733Z,78.80
2019-03-10T04:13:48.110Z,79.00
2019-03-10T04:16:17.511Z,79.00
2019-03-10T04:18:46.886Z,79.10
2019-03-10T04:21:16.287Z,79.20
2019-03-10T04:23:45.655Z,79.10
2019-03-10T04:26:15.028Z,79.50
2019-03-10T04:28:44.419Z,79.50
2019-03-10T04:31:13.862Z,79.60
2019-03-10T04:33:43.277Z,79.60
2019-03-10T04:36:12.650Z,79.90
2019-03-10T04:38:42.062Z,80.10
2019-03-10T04:41:11.375Z,80.40
2019-03-10T04:43:40.671Z,80.50
2019-03-10T04:46:10.091Z,80.70
2019-03-10T04:48:39.463Z,80.80
2019-03-10T04:51:08.868Z,80.30
2019-03-10T04:53:38.264Z,79.70
2019-03-10T04:56:29.428Z,79.70
2019-03-10T04:58:58.847Z,80.00
2019-03-10T05:01:28.210Z,80.20
2019-03-10T05:03:57.611Z,80.40
2019-03-10T05:06:27.017Z,80.80
2019-03-10T05:08:56.394Z,81.20
2019-03-10T05:11:25.807Z,81.50
2019-03-10T05:13:55.178Z,82.00
2019-03-10T05:16:24.608Z,82.60
2019-03-10T05:18:53.981Z,83.00
2019-03-10T05:21:23.471Z,83.00
2019-03-10T05:23:53.098Z,83.50
2019-03-10T05:26:22.504Z,83.90
2019-03-10T05:28:51.908Z,84.30
2019-03-10T05:31:21.335Z,84.70
2019-03-10T05:33:50.651Z,85.10
2019-03-10T05:36:20.035Z,85.30
2019-03-10T05:38:49.447Z,85.50
2019-03-10T05:41:18.834Z,85.60
2019-03-10T05:43:48.210Z,85.70
2019-03-10T05:46:17.606Z,85.70
2019-03-10T05:48:46.971Z,85.90
2019-03-10T05:51:16.385Z,86.00
2019-03-10T05:53:45.738Z,86.10
2019-03-10T05:56:15.055Z,86.30
2019-03-10T05:58:44.495Z,86.50
2019-03-10T06:01:13.880Z,86.80
2019-03-10T06:03:43.271Z,87.20
2019-03-10T06:06:12.575Z,87.30
2019-03-10T06:08:41.975Z,87.50
2019-03-10T06:11:11.299Z,87.60
2019-03-10T06:13:40.674Z,87.70
2019-03-10T06:16:10.081Z,87.80
2019-03-10T06:18:39.472Z,88.10
2019-03-10T06:21:09.169Z,88.10
2019-03-10T06:23:38.551Z,88.40
2019-03-10T06:26:07.947Z,88.50
2019-03-10T06:28:37.320Z,88.50
2019-03-10T06:31:06.769Z,88.90
2019-03-10T06:33:36.188Z,89.10
2019-03-10T06:36:05.560Z,89.40
2019-03-10T06:38:35.014Z,89.70
2019-03-10T06:41:04.388Z,90.00
2019-03-10T06:43:33.752Z,90.40
2019-03-10T06:46:03.121Z,90.10
2019-03-10T06:48:32.504Z,90.30
2019-03-10T06:51:01.931Z,90.20
2019-03-10T06:53:31.356Z,90.20
2019-03-10T06:56:00.739Z,90.10
2019-03-10T06:58:30.185Z,90.10
2019-03-10T07:00:59.602Z,90.20
2019-03-10T07:03:28.979Z,90.10
2019-03-10T07:05:58.294Z,90.20
2019-03-10T07:08:27.692Z,90.20
2019-03-10T07:10:57.077Z,90.20
2019-03-10T07:13:26.479Z,90.30
2019-03-10T07:15:55.867Z,90.40
2019-03-10T07:18:25.314Z,90.30
2019-03-10T07:20:54.688Z,90.30
2019-03-10T07:23:24.265Z,90.40
2019-03-10T07:26:18.401Z,90.50
2019-03-10T07:28:53.586Z,90.60
2019-03-10T07:31:27.530Z,90.50
2019-03-10T07:34:09.650Z,90.60
2019-03-10T07:36:58.368Z,90.60
2019-03-10T07:39:48.067Z,90.50
2019-03-10T07:42:34.774Z,90.40
2019-03-10T07:45:35.483Z,90.30
2019-03-10T07:48:16.906Z,90.20
2019-03-10T07:51:05.219Z,90.30
2019-03-10T07:54:02.761Z,90.20
2019-03-10T07:56:51.087Z,90.10
2019-03-10T07:59:38.247Z,90.10
2019-03-10T08:02:38.655Z,90.00
2019-03-10T08:05:33.071Z,90.00
2019-03-10T08:08:22.151Z,90.00
2019-03-10T08:11:06.695Z,89.90
2019-03-10T08:13:47.599Z,89.80
2019-03-10T08:16:45.531Z,89.60
2019-03-10T08:19:32.223Z,89.30
2019-03-10T08:22:15.710Z,89.40
2019-03-10T08:24:56.196Z,89.80
2019-03-10T08:27:43.202Z,90.00
2019-03-10T08:30:34.301Z,90.10
2019-03-10T08:33:19.079Z,90.20
2019-03-10T08:35:58.644Z,90.30
2019-03-10T08:38:45.680Z,90.40
2019-03-10T08:41:36.838Z,90.30
2019-03-10T08:44:40.397Z,90.30
2019-03-10T08:47:34.575Z,90.30
2019-03-10T08:50:17.193Z,90.20
2019-03-10T08:52:52.070Z,90.10
2019-03-10T08:55:27.024Z,90.00
2019-03-10T08:58:15.346Z,89.90
2019-03-10T09:01:00.711Z,89.80
2019-03-10T09:03:39.468Z,89.80
2019-03-10T09:06:15.375Z,89.80
2019-03-10T09:09:21.587Z,89.90
2019-03-10T09:12:12.699Z,89.80
2019-03-10T09:15:03.584Z,89.80
2019-03-10T09:17:54.755Z,89.80
2019-03-10T09:20:43.088Z,89.90
2019-03-10T09:23:41.987Z,89.80
2019-03-10T09:26:42.208Z,90.00
2019-03-10T09:29:18.023Z,90.10
2019-03-10T09:32:05.215Z,90.00
2019-03-10T09:34:50.103Z,89.50
2019-03-10T09:37:34.015Z,89.40
2019-03-10T09:40:25.912Z,89.40
2019-03-10T09:43:32.112Z,89.80
2019-03-10T09:46:11.944Z,90.20
2019-03-10T09:48:54.021Z,90.30
2019-03-10T09:51:32.771Z,90.30
2019-03-10T09:54:19.792Z,90.30
2019-03-10T09:57:08.934Z,90.40
2019-03-10T10:00:12.202Z,90.40
2019-03-10T10:03:00.585Z,90.50
2019-03-10T10:05:37.265Z,90.40
2019-03-10T10:08:40.450Z,90.20
2019-03-10T10:11:33.288Z,90.00
2019-03-10T10:14:12.167Z,90.00
2019-03-10T10:16:53.931Z,90.00
2019-03-10T10:19:40.914Z,90.20
2019-03-10T10:22:24.681Z,90.20
2019-03-10T10:25:00.417Z,90.10
2019-03-10T10:27:57.983Z,90.20
2019-03-10T10:31:01.639Z,90.20
2019-03-10T10:34:05.232Z,90.30
2019-03-10T10:36:47.988Z,90.20
2019-03-10T10:39:42.727Z,90.20
2019-03-10T10:42:31.085Z,90.30
2019-03-10T10:45:37.612Z,90.10
2019-03-10T10:48:13.312Z,90.00
2019-03-10T10:50:58.731Z,89.60
2019-03-10T10:53:33.485Z,89.20
2019-03-10T10:56:20.472Z,89.20
2019-03-10T10:59:17.594Z,89.10
2019-03-10T11:02:04.299Z,89.10
2019-03-10T11:04:45.616Z,89.30
2019-03-10T11:07:43.006Z,89.50
2019-03-10T11:10:29.950Z,89.80
2019-03-10T11:13:24.211Z,89.90
2019-03-10T11:16:05.848Z,89.90
2019-03-10T11:18:42.636Z,90.00
2019-03-10T11:21:29.368Z,90.00
2019-03-10T11:24:15.473Z,89.90
2019-03-10T11:26:58.655Z,89.60
2019-03-10T11:29:37.121Z,89.10
2019-03-10T11:32:37.732Z,88.40
2019-03-10T11:35:24.263Z,87.90
2019-03-10T11:38:30.487Z,87.30
2019-03-10T11:41:21.774Z,87.60
2019-03-10T11:44:16.002Z,87.50
2019-03-10T11:47:07.031Z,87.30
2019-03-10T11:49:56.052Z,87.30
2019-03-10T11:52:36.535Z,87.10
2019-03-10T11:55:37.316Z,87.00
2019-03-10T11:58:13.580Z,87.20
2019-03-10T12:00:52.751Z,87.50
2019-03-10T12:03:47.228Z,87.50
2019-03-10T12:06:38.640Z,87.30
2019-03-10T12:09:24.575Z,87.30
2019-03-10T12:11:53.992Z,86.70
2019-03-10T12:14:23.395Z,86.50
2019-03-10T12:16:52.824Z,86.30
2019-03-10T12:19:22.209Z,85.40
2019-03-10T12:21:51.595Z,84.70
2019-03-10T12:24:21.027Z,84.30
2019-03-10T12:26:50.390Z,83.50
2019-03-10T12:29:19.740Z,83.40
2019-03-10T12:31:49.115Z,82.90
2019-03-10T12:34:18.616Z,82.00
2019-03-10T12:36:48.098Z,81.80
2019-03-10T12:39:17.563Z,81.90
2019-03-10T12:41:57.533Z,81.60
2019-03-10T12:44:18.005Z,80.50
2019-03-10T12:46:47.403Z,80.30
2019-03-10T12:49:16.795Z,79.80
2019-03-10T12:51:46.186Z,78.80
2019-03-10T12:54:15.603Z,79.10
2019-03-10T12:56:45.000Z,78.60
2019-03-10T12:59:14.402Z,78.00
2019-03-10T13:01:43.783Z,77.10
2019-03-10T13:04:13.191Z,76.90
2019-03-10T13:06:42.588Z,76.60
2019-03-10T13:09:11.996Z,76.50
2019-03-10T13:11:41.403Z,75.70
2019-03-10T13:14:10.788Z,75.20
2019-03-10T13:16:40.215Z,74.90
2019-03-10T13:19:09.615Z,74.60
2019-03-10T13:21:39.024Z,73.90
2019-03-10T13:24:08.428Z,73.60
2019-03-10T13:26:37.855Z,73.30
2019-03-10T13:29:07.296Z,73.00
2019-03-10T13:31:36.687Z,72.80
2019-03-10T13:34:06.118Z,72.00
2019-03-10T13:36:35.567Z,71.50
2019-03-10T13:39:07.088Z,71.40
2019-03-10T13:41:36.524Z,71.20
2019-03-10T13:44:05.906Z,70.60
2019-03-10T13:46:35.327Z,71.20
2019-03-10T13:49:04.755Z,71.40
2019-03-10T13:51:34.168Z,71.30
2019-03-10T13:54:03.584Z,70.10
2019-03-10T13:56:32.988Z,70.20
2019-03-10T13:59:02.544Z,69.50
2019-03-10T14:01:31.967Z,69.60
2019-03-10T14:04:01.319Z,68.50
2019-03-10T14:06:30.800Z,68.60
2019-03-10T14:09:00.230Z,68.40
2019-03-10T14:11:29.657Z,68.00
2019-03-10T14:13:59.037Z,67.80
2019-03-10T14:16:28.440Z,68.40
2019-03-10T14:18:57.891Z,68.40
2019-03-10T14:21:27.285Z,68.30
2019-03-10T14:23:56.708Z,68.10
2019-03-10T14:26:26.114Z,67.10
2019-03-10T14:28:55.555Z,67.00
2019-03-10T14:31:24.955Z,67.10
2019-03-10T14:33:56.969Z,66.50
2019-03-10T14:36:25.397Z,66.00
2019-03-10T14:38:54.844Z,65.80
2019-03-10T14:41:24.244Z,65.20
2019-03-10T14:43:53.958Z,65.00
2019-03-10T14:46:23.378Z,64.90
2019-03-10T14:48:52.737Z,64.60
2019-03-10T14:51:22.202Z,64.90
2019-03-10T14:53:51.597Z,65.20
2019-03-10T14:56:20.979Z,65.90
2019-03-10T14:58:50.426Z,67.60
2019-03-10T15:01:22.244Z,70.20
2019-03-10T15:03:50.927Z,73.50
2019-03-10T15:06:20.348Z,74.30
2019-03-10T15:08:49.772Z,74.60
2019-03-10T15:11:19.235Z,74.00
2019-03-10T15:13:48.639Z,73.40
2019-03-10T15:16:18.014Z,73.00
2019-03-10T15:18:47.460Z,71.20
2019-03-10T15:21:16.857Z,70.30
2019-03-10T15:23:46.264Z,69.60
2019-03-10T15:26:15.666Z,68.80
2019-03-10T15:28:45.151Z,69.10
2019-03-10T15:31:14.578Z,67.60
2019-03-10T15:33:43.924Z,67.90
2019-03-10T15:36:20.207Z,67.50
2019-03-10T15:38:44.375Z,67.20
2019-03-10T15:41:13.787Z,67.50
2019-03-10T15:43:43.163Z,66.50
2019-03-10T15:46:12.549Z,66.20
2019-03-10T15:48:41.967Z,66.70
2019-03-10T15:51:11.344Z,67.10
2019-03-10T15:53:40.755Z,67.60
2019-03-10T15:56:10.138Z,68.00
2019-03-10T15:58:39.527Z,68.40
2019-03-10T16:01:08.917Z,68.80
2019-03-10T16:03:38.422Z,68.50
2019-03-10T16:06:07.959Z,69.00
2019-03-10T16:08:37.352Z,69.90
2019-03-10T16:11:06.756Z,70.80
2019-03-10T16:13:36.210Z,71.10
2019-03-10T16:16:05.659Z,71.20
2019-03-10T16:18:35.061Z,71.00
2019-03-10T16:21:04.455Z,71.00
2019-03-10T16:23:33.863Z,70.40
2019-03-10T16:26:03.242Z,68.90
2019-03-10T16:28:32.658Z,67.40
2019-03-10T16:31:02.055Z,64.60
2019-03-10T16:33:31.502Z,63.40
2019-03-10T16:36:00.935Z,63.40
2019-03-10T16:38:30.373Z,61.60
2019-03-10T16:40:59.784Z,61.30
2019-03-10T16:43:29.163Z,61.30
2019-03-10T16:45:58.631Z,61.10
2019-03-10T16:48:28.008Z,61.70
2019-03-10T16:50:57.427Z,62.20
2019-03-10T16:53:26.803Z,62.10
2019-03-10T16:56:02.905Z,62.00
2019-03-10T16:58:27.261Z,62.10
2019-03-10T17:00:56.631Z,62.60
2019-03-10T17:03:26.039Z,62.70
2019-03-10T17:05:55.526Z,63.10
2019-03-10T17:08:24.896Z,63.60
2019-03-10T17:10:54.287Z,63.80
2019-03-10T17:13:23.696Z,64.20
2019-03-10T17:15:53.066Z,64.30
2019-03-10T17:18:22.459Z,64.10
2019-03-10T17:20:51.867Z,64.00
2019-03-10T17:23:21.259Z,64.10
2019-03-10T17:25:50.667Z,63.70
2019-03-10T17:28:20.047Z,63.90
2019-03-10T17:30:49.454Z,63.80
2019-03-10T17:33:18.839Z,62.80
2019-03-10T17:35:48.207Z,62.90
2019-03-10T17:38:17.600Z,62.50
2019-03-10T17:40:46.983Z,62.20
2019-03-10T17:43:16.394Z,60.90
2019-03-10T17:45:45.776Z,60.80
2019-03-10T17:48:15.196Z,60.60
2019-03-10T17:50:44.571Z,60.70
2019-03-10T17:53:13.956Z,61.10
2019-03-10T17:55:43.373Z,61.40
2019-03-10T17:58:12.743Z,62.00
2019-03-10T18:00:42.147Z,62.70
2019-03-10T18:03:11.532Z,63.60
2019-03-10T18:05:40.970Z,63.70
2019-03-10T18:08:10.376Z,63.90
2019-03-10T18:10:39.752Z,63.10
2019-03-10T18:13:09.170Z,62.80
2019-03-10T18:15:38.567Z,62.90
2019-03-10T18:18:07.987Z,62.70
2019-03-10T18:20:37.388Z,62.30
2019-03-10T18:23:06.775Z,62.50
2019-03-10T18:25:36.191Z,61.60
2019-03-10T18:28:06.361Z,61.00
2019-03-10T18:30:35.844Z,60.20
2019-03-10T18:33:05.204Z,59.60
2019-03-10T18:35:34.591Z,59.70
2019-03-10T18:38:04.030Z,59.80
2019-03-10T18:40:33.471Z,59.00
2019-03-10T18:43:02.876Z,58.90
2019-03-10T18:45:32.247Z,59.00
2019-03-10T18:48:01.748Z,58.90
2019-03-10T18:50:31.164Z,58.80
2019-03-10T18:53:00.571Z,58.70
2019-03-10T18:55:30.084Z,58.50
2019-03-10T18:57:59.493Z,58.50
2019-03-10T19:00:28.963Z,58.70
2019-03-10T19:02:58.395Z,58.60
2019-03-10T19:05:27.815Z,58.40
2019-03-10T19:07:57.212Z,58.40
2019-03-10T19:10:26.615Z,58.20
2019-03-10T19:12:56.996Z,58.30
2019-03-10T19:15:26.425Z,58.40
2019-03-10T19:17:55.848Z,58.30
2019-03-10T19:20:25.231Z,58.40
2019-03-10T19:22:54.731Z,58.50
2019-03-10T19:25:24.180Z,58.60
2019-03-10T19:27:53.573Z,58.90
2019-03-10T19:30:23.005Z,59.10
2019-03-10T19:32:52.418Z,59.40
2019-03-10T19:35:21.845Z,59.70
2019-03-10T19:37:51.276Z,59.90
2019-03-10T19:40:20.772Z,61.00
2019-03-10T19:42:50.192Z,60.50
2019-03-10T19:45:19.615Z,60.40
2019-03-10T19:47:49.016Z,60.30
2019-03-10T19:50:18.491Z,59.80
2019-03-10T19:52:48.221Z,59.10
2019-03-10T19:55:17.738Z,59.30
2019-03-10T19:57:47.147Z,59.10
2019-03-10T20:00:17.037Z,59.00
2019-03-10T20:02:46.651Z,59.10
2019-03-10T20:05:16.046Z,58.90
2019-03-10T20:07:45.524Z,58.80
2019-03-10T20:10:15.298Z,58.80
2019-03-10T20:12:44.680Z,58.70
2019-03-10T20:15:15.509Z,58.80
2019-03-10T20:17:44.866Z,60.50
2019-03-10T20:20:15.485Z,62.90
2019-03-10T20:22:44.921Z,64.20
2019-03-10T20:25:14.498Z,65.00
2019-03-10T20:27:43.936Z,65.70
2019-03-10T20:30:15.571Z,66.80
2019-03-10T20:32:44.982Z,67.40
2019-03-10T20:35:14.375Z,68.00
2019-03-10T20:37:43.747Z,68.30
2019-03-10T20:40:14.606Z,68.70
2019-03-10T20:42:43.987Z,72.70
2019-03-10T20:45:13.463Z,77.40
2019-03-10T20:47:42.755Z,80.20
2019-03-10T20:50:12.910Z,81.70
2019-03-10T20:52:42.337Z,82.90
2019-03-10T20:55:11.741Z,83.80
2019-03-10T20:57:41.147Z,84.40
2019-03-10T21:00:13.167Z,84.50
2019-03-10T21:02:42.585Z,84.50
2019-03-10T21:05:12.112Z,84.40
2019-03-10T21:07:41.498Z,83.80
2019-03-10T21:10:12.323Z,83.40
2019-03-10T21:12:42.844Z,82.80
2019-03-10T21:15:14.243Z,82.30
2019-03-10T21:17:43.631Z,81.90
2019-03-10T21:20:14.423Z,81.50
2019-03-10T21:22:43.819Z,80.60
2019-03-10T21:25:15.175Z,80.50
2019-03-10T21:27:44.968Z,79.50
2019-03-10T21:30:16.719Z,79.80
2019-03-10T21:32:46.095Z,78.40
2019-03-10T21:35:18.013Z,77.70
2019-03-10T21:37:46.551Z,77.30
2019-03-10T21:40:17.613Z,75.80
2019-03-10T21:42:47.076Z,75.30
2019-03-10T21:45:16.787Z,74.70
2019-03-10T21:47:46.182Z,74.30
2019-03-10T21:50:15.675Z,73.60
2019-03-10T21:52:45.125Z,73.10
2019-03-10T21:55:14.547Z,72.80
2019-03-10T21:57:43.962Z,71.50
2019-03-10T22:00:13.817Z,70.20
2019-03-10T22:02:43.211Z,68.90
2019-03-10T22:05:12.737Z,68.80
2019-03-10T22:07:42.134Z,68.30
2019-03-10T22:10:11.571Z,67.80
2019-03-10T22:12:41.009Z,67.80
2019-03-10T22:15:11.904Z,67.70
2019-03-10T22:17:41.393Z,66.70
2019-03-10T22:20:12.479Z,66.60
2019-03-10T22:22:48.391Z,64.40
2019-03-10T22:25:13.546Z,63.40
2019-03-10T22:27:45.559Z,63.70
2019-03-10T22:30:15.350Z,62.90
2019-03-10T22:32:44.721Z,63.10
2019-03-10T22:35:14.114Z,63.70
2019-03-10T22:37:43.478Z,62.90
2019-03-10T22:40:13.166Z,61.90
2019-03-10T22:42:42.623Z,62.10
2019-03-10T22:45:12.563Z,61.90
2019-03-10T22:47:41.967Z,61.20
2019-03-10T22:50:11.908Z,61.30
2019-03-10T22:52:41.294Z,61.70
2019-03-10T22:55:10.706Z,61.60
2019-03-10T22:57:40.120Z,61.70
2019-03-10T23:00:15.043Z,61.50
2019-03-10T23:02:44.382Z,61.80
2019-03-10T23:05:13.851Z,61.60
2019-03-10T23:07:43.215Z,61.90
2019-03-10T23:10:13.329Z,62.00
2019-03-10T23:12:42.762Z,62.30
2019-03-10T23:15:12.796Z,61.90
2019-03-10T23:17:42.182Z,62.30
2019-03-10T23:20:12.647Z,62.20
2019-03-10T23:22:42.012Z,63.10
2019-03-10T23:25:11.557Z,63.50
2019-03-10T23:27:40.926Z,64.10
2019-03-10T23:30:11.688Z,64.70
2019-03-10T23:32:41.081Z,65.20
2019-03-10T23:35:10.488Z,66.00
2019-03-10T23:37:39.868Z,66.40
2019-03-10T23:40:10.017Z,66.60
2019-03-10T23:42:39.421Z,66.90
2019-03-10T23:45:09.200Z,67.00
2019-03-10T23:47:38.608Z,67.20
2019-03-10T23:50:08.712Z,67.20
2019-03-10T23:52:38.130Z,67.00
2019-03-10T23:55:07.775Z,67.10
2019-03-10T23:57:37.172Z,66.80
